sensor_id;sensor_type;location;lat;lon;timestamp;pressure;altitude;pressure_sealevel;temperature;humidity
77279;BME280;66332;50.436;15.378;2023-11-19T00:01:07;98549.44;;;1.42;100.00
77279;BME280;66332;50.436;15.378;2023-11-19T00:06:08;98559.56;;;1.45;100.00
77279;BME280;66332;50.436;15.378;2023-11-19T00:10:50;98533.91;;;1.42;100.00
77279;BME280;66332;50.436;15.378;2023-11-19T00:15:31;98546.88;;;1.53;100.00
77279;BME280;66332;50.436;15.378;2023-11-19T00:20:16;98527.34;;;1.49;100.00
77279;BME280;66332;50.436;15.378;2023-11-19T00:24:57;98514.75;;;1.56;100.00
77279;BME280;66332;50.436;15.378;2023-11-19T00:29:37;98505.28;;;1.55;100.00
77279;BME280;66332;50.436;15.378;2023-11-19T00:34:18;98482.69;;;1.57;100.00
77279;BME280;66332;50.436;15.378;2023-11-19T00:39:02;98488.09;;;1.54;100.00
77279;BME280;66332;50.436;15.378;2023-11-19T00:43:43;98462.69;;;1.59;100.00
77279;BME280;66332;50.436;15.378;2023-11-19T00:48:24;98430.88;;;1.68;100.00
77279;BME280;66332;50.436;15.378;2023-11-19T00:53:04;98424.28;;;1.53;100.00
77279;BME280;66332;50.436;15.378;2023-11-19T00:57:45;98420.16;;;1.50;100.00
77279;BME280;66332;50.436;15.378;2023-11-19T01:02:26;98432.50;;;1.58;100.00
77279;BME280;66332;50.436;15.378;2023-11-19T01:07:07;98405.44;;;1.62;100.00
77279;BME280;66332;50.436;15.378;2023-11-19T01:11:53;98438.88;;;1.54;100.00
77279;BME280;66332;50.436;15.378;2023-11-19T01:16:34;98430.41;;;1.63;100.00
77279;BME280;66332;50.436;15.378;2023-11-19T01:21:15;98408.84;;;1.51;100.00
77279;BME280;66332;50.436;15.378;2023-11-19T01:25:56;98408.50;;;1.56;100.00
77279;BME280;66332;50.436;15.378;2023-11-19T01:30:37;98403.53;;;1.64;100.00
77279;BME280;66332;50.436;15.378;2023-11-19T01:35:18;98403.66;;;1.63;100.00
77279;BME280;66332;50.436;15.378;2023-11-19T01:39:58;98388.59;;;1.68;100.00
77279;BME280;66332;50.436;15.378;2023-11-19T01:44:39;98385.75;;;1.59;100.00
77279;BME280;66332;50.436;15.378;2023-11-19T01:49:20;98378.81;;;1.49;100.00
77279;BME280;66332;50.436;15.378;2023-11-19T01:54:01;98351.97;;;1.50;100.00
77279;BME280;66332;50.436;15.378;2023-11-19T01:58:44;98339.25;;;1.47;100.00
77279;BME280;66332;50.436;15.378;2023-11-19T02:03:26;98330.75;;;1.33;100.00
77279;BME280;66332;50.436;15.378;2023-11-19T02:08:09;98326.06;;;1.38;100.00
77279;BME280;66332;50.436;15.378;2023-11-19T02:12:50;98305.69;;;1.45;100.00
77279;BME280;66332;50.436;15.378;2023-11-19T02:17:32;98308.88;;;1.37;100.00
77279;BME280;66332;50.436;15.378;2023-11-19T02:22:12;98288.97;;;1.38;100.00
77279;BME280;66332;50.436;15.378;2023-11-19T02:27:07;98294.97;;;1.27;100.00
77279;BME280;66332;50.436;15.378;2023-11-19T02:31:51;98303.81;;;1.25;100.00
77279;BME280;66332;50.436;15.378;2023-11-19T02:36:32;98296.03;;;1.25;100.00
77279;BME280;66332;50.436;15.378;2023-11-19T02:41:14;98275.00;;;1.07;100.00
77279;BME280;66332;50.436;15.378;2023-11-19T02:45:54;98262.06;;;1.07;100.00
77279;BME280;66332;50.436;15.378;2023-11-19T02:50:36;98285.13;;;1.10;100.00
77279;BME280;66332;50.436;15.378;2023-11-19T02:55:17;98266.03;;;1.22;100.00
77279;BME280;66332;50.436;15.378;2023-11-19T02:59:58;98253.81;;;1.13;100.00
77279;BME280;66332;50.436;15.378;2023-11-19T03:04:40;98232.03;;;1.04;100.00
77279;BME280;66332;50.436;15.378;2023-11-19T03:09:20;98241.09;;;1.10;100.00
77279;BME280;66332;50.436;15.378;2023-11-19T03:14:01;98235.78;;;1.00;100.00
77279;BME280;66332;50.436;15.378;2023-11-19T03:18:43;98222.97;;;0.99;100.00
77279;BME280;66332;50.436;15.378;2023-11-19T03:23:24;98208.75;;;1.04;100.00
77279;BME280;66332;50.436;15.378;2023-11-19T03:28:08;98221.78;;;1.03;100.00
77279;BME280;66332;50.436;15.378;2023-11-19T03:32:49;98215.47;;;0.96;100.00
77279;BME280;66332;50.436;15.378;2023-11-19T03:37:29;98207.69;;;1.07;100.00
77279;BME280;66332;50.436;15.378;2023-11-19T03:42:10;98193.78;;;0.97;100.00
77279;BME280;66332;50.436;15.378;2023-11-19T03:46:53;98166.75;;;1.01;100.00
77279;BME280;66332;50.436;15.378;2023-11-19T03:51:34;98159.91;;;1.00;100.00
77279;BME280;66332;50.436;15.378;2023-11-19T03:56:15;98147.66;;;1.13;100.00
77279;BME280;66332;50.436;15.378;2023-11-19T04:00:56;98153.31;;;1.07;100.00
77279;BME280;66332;50.436;15.378;2023-11-19T04:05:37;98152.84;;;1.02;100.00
77279;BME280;66332;50.436;15.378;2023-11-19T04:10:17;98149.31;;;1.03;100.00
77279;BME280;66332;50.436;15.378;2023-11-19T04:14:59;98144.63;;;0.97;100.00
77279;BME280;66332;50.436;15.378;2023-11-19T04:19:39;98128.97;;;0.98;100.00
77279;BME280;66332;50.436;15.378;2023-11-19T04:24:21;98117.34;;;0.93;100.00
77279;BME280;66332;50.436;15.378;2023-11-19T04:29:02;98109.81;;;0.89;100.00
77279;BME280;66332;50.436;15.378;2023-11-19T04:33:43;98093.78;;;0.96;100.00
77279;BME280;66332;50.436;15.378;2023-11-19T04:38:24;98087.81;;;0.95;100.00
77279;BME280;66332;50.436;15.378;2023-11-19T04:43:07;98072.38;;;0.94;100.00
77279;BME280;66332;50.436;15.378;2023-11-19T04:47:48;98056.06;;;0.82;100.00
77279;BME280;66332;50.436;15.378;2023-11-19T04:52:28;98051.34;;;0.87;100.00
77279;BME280;66332;50.436;15.378;2023-11-19T04:57:10;98052.16;;;0.87;100.00
77279;BME280;66332;50.436;15.378;2023-11-19T05:01:53;98059.91;;;0.99;100.00
77279;BME280;66332;50.436;15.378;2023-11-19T05:06:34;98038.94;;;1.02;100.00
77279;BME280;66332;50.436;15.378;2023-11-19T05:11:15;98040.47;;;1.04;100.00
77279;BME280;66332;50.436;15.378;2023-11-19T05:15:59;98025.44;;;0.98;100.00
77279;BME280;66332;50.436;15.378;2023-11-19T05:20:40;98029.28;;;1.04;100.00
77279;BME280;66332;50.436;15.378;2023-11-19T05:25:21;98037.31;;;1.01;100.00
77279;BME280;66332;50.436;15.378;2023-11-19T05:30:03;98039.94;;;0.89;100.00
77279;BME280;66332;50.436;15.378;2023-11-19T05:34:44;98022.84;;;0.98;100.00
77279;BME280;66332;50.436;15.378;2023-11-19T05:39:25;98010.00;;;0.97;100.00
77279;BME280;66332;50.436;15.378;2023-11-19T05:44:06;97996.75;;;0.90;100.00
77279;BME280;66332;50.436;15.378;2023-11-19T05:48:47;97998.28;;;0.93;100.00
77279;BME280;66332;50.436;15.378;2023-11-19T05:53:28;97989.94;;;0.89;100.00
77279;BME280;66332;50.436;15.378;2023-11-19T05:58:10;97966.91;;;0.86;100.00
77279;BME280;66332;50.436;15.378;2023-11-19T06:02:52;97953.56;;;1.11;100.00
77279;BME280;66332;50.436;15.378;2023-11-19T06:07:33;97969.25;;;1.31;100.00
77279;BME280;66332;50.436;15.378;2023-11-19T06:12:14;97973.56;;;1.30;100.00
77279;BME280;66332;50.436;15.378;2023-11-19T06:16:54;97946.44;;;1.04;100.00
77279;BME280;66332;50.436;15.378;2023-11-19T06:21:36;97949.09;;;0.93;100.00
77279;BME280;66332;50.436;15.378;2023-11-19T06:26:17;97937.47;;;0.87;100.00
77279;BME280;66332;50.436;15.378;2023-11-19T06:30:58;97941.31;;;0.93;100.00
77279;BME280;66332;50.436;15.378;2023-11-19T06:35:39;97937.16;;;1.01;100.00
77279;BME280;66332;50.436;15.378;2023-11-19T06:40:20;97928.13;;;0.96;100.00
77279;BME280;66332;50.436;15.378;2023-11-19T06:45:02;97926.09;;;0.99;100.00
77279;BME280;66332;50.436;15.378;2023-11-19T06:49:44;97933.00;;;1.10;100.00
77279;BME280;66332;50.436;15.378;2023-11-19T06:54:24;97937.59;;;1.06;100.00
77279;BME280;66332;50.436;15.378;2023-11-19T06:59:05;97921.75;;;1.00;100.00
77279;BME280;66332;50.436;15.378;2023-11-19T07:03:46;97926.81;;;0.80;100.00
77279;BME280;66332;50.436;15.378;2023-11-19T07:08:27;97918.22;;;0.80;100.00
77279;BME280;66332;50.436;15.378;2023-11-19T07:13:08;97909.19;;;0.74;100.00
77279;BME280;66332;50.436;15.378;2023-11-19T07:17:50;97911.06;;;0.72;100.00
77279;BME280;66332;50.436;15.378;2023-11-19T07:22:31;97913.56;;;0.74;100.00
77279;BME280;66332;50.436;15.378;2023-11-19T07:27:12;97896.44;;;0.61;100.00
77279;BME280;66332;50.436;15.378;2023-11-19T07:31:54;97897.81;;;0.65;100.00
77279;BME280;66332;50.436;15.378;2023-11-19T07:36:35;97902.50;;;0.72;100.00
77279;BME280;66332;50.436;15.378;2023-11-19T07:41:16;97888.28;;;0.66;100.00
77279;BME280;66332;50.436;15.378;2023-11-19T07:45:57;97863.63;;;0.62;100.00
77279;BME280;66332;50.436;15.378;2023-11-19T07:50:39;97883.06;;;0.77;100.00
77279;BME280;66332;50.436;15.378;2023-11-19T07:55:23;97900.72;;;0.93;100.00
77279;BME280;66332;50.436;15.378;2023-11-19T08:00:04;97885.09;;;0.95;100.00
77279;BME280;66332;50.436;15.378;2023-11-19T08:04:45;97878.75;;;0.87;100.00
77279;BME280;66332;50.436;15.378;2023-11-19T08:09:26;97885.97;;;0.84;100.00
77279;BME280;66332;50.436;15.378;2023-11-19T08:14:07;97881.84;;;1.02;100.00
77279;BME280;66332;50.436;15.378;2023-11-19T08:18:49;97879.44;;;1.10;100.00
77279;BME280;66332;50.436;15.378;2023-11-19T08:23:30;97852.41;;;1.03;100.00
77279;BME280;66332;50.436;15.378;2023-11-19T08:28:10;97853.81;;;1.07;100.00
77279;BME280;66332;50.436;15.378;2023-11-19T08:32:51;97839.63;;;1.02;100.00
77279;BME280;66332;50.436;15.378;2023-11-19T08:37:32;97845.28;;;1.17;100.00
77279;BME280;66332;50.436;15.378;2023-11-19T08:42:13;97835.44;;;1.10;100.00
77279;BME280;66332;50.436;15.378;2023-11-19T08:46:54;97847.19;;;1.24;100.00
77279;BME280;66332;50.436;15.378;2023-11-19T08:51:35;97833.13;;;1.17;100.00
77279;BME280;66332;50.436;15.378;2023-11-19T08:56:15;97840.81;;;1.28;100.00
77279;BME280;66332;50.436;15.378;2023-11-19T09:00:56;97853.56;;;1.51;100.00
77279;BME280;66332;50.436;15.378;2023-11-19T09:05:38;97836.63;;;1.37;100.00
77279;BME280;66332;50.436;15.378;2023-11-19T09:10:19;97833.19;;;1.36;100.00
77279;BME280;66332;50.436;15.378;2023-11-19T09:14:59;97831.72;;;1.34;100.00
77279;BME280;66332;50.436;15.378;2023-11-19T09:19:40;97832.00;;;1.41;100.00
77279;BME280;66332;50.436;15.378;2023-11-19T09:24:21;97820.00;;;1.40;100.00
77279;BME280;66332;50.436;15.378;2023-11-19T09:29:02;97817.56;;;1.48;100.00
77279;BME280;66332;50.436;15.378;2023-11-19T09:33:43;97814.34;;;1.55;100.00
77279;BME280;66332;50.436;15.378;2023-11-19T09:38:24;97802.19;;;1.56;100.00
77279;BME280;66332;50.436;15.378;2023-11-19T09:43:05;97800.97;;;1.60;100.00
77279;BME280;66332;50.436;15.378;2023-11-19T09:47:46;97804.78;;;1.66;100.00
77279;BME280;66332;50.436;15.378;2023-11-19T09:52:27;97788.16;;;1.68;100.00
77279;BME280;66332;50.436;15.378;2023-11-19T09:57:09;97791.31;;;1.91;100.00
77279;BME280;66332;50.436;15.378;2023-11-19T10:01:52;97794.16;;;1.78;100.00
77279;BME280;66332;50.436;15.378;2023-11-19T10:06:32;97789.53;;;1.92;100.00
77279;BME280;66332;50.436;15.378;2023-11-19T10:11:13;97780.00;;;1.92;100.00
77279;BME280;66332;50.436;15.378;2023-11-19T10:15:56;97768.53;;;2.04;100.00
77279;BME280;66332;50.436;15.378;2023-11-19T10:20:38;97778.22;;;2.12;100.00
77279;BME280;66332;50.436;15.378;2023-11-19T10:25:25;97762.00;;;2.10;100.00
77279;BME280;66332;50.436;15.378;2023-11-19T10:30:06;97775.47;;;2.33;100.00
77279;BME280;66332;50.436;15.378;2023-11-19T10:34:48;97768.78;;;2.30;100.00
77279;BME280;66332;50.436;15.378;2023-11-19T10:39:52;97768.94;;;2.29;100.00
77279;BME280;66332;50.436;15.378;2023-11-19T10:44:36;97761.13;;;2.39;100.00
77279;BME280;66332;50.436;15.378;2023-11-19T10:49:18;97769.31;;;2.44;100.00
77279;BME280;66332;50.436;15.378;2023-11-19T10:54:05;97750.88;;;2.47;100.00
77279;BME280;66332;50.436;15.378;2023-11-19T10:58:48;97729.59;;;2.34;100.00
77279;BME280;66332;50.436;15.378;2023-11-19T11:03:40;97731.66;;;2.20;100.00
77279;BME280;66332;50.436;15.378;2023-11-19T11:08:21;97743.94;;;2.38;100.00
77279;BME280;66332;50.436;15.378;2023-11-19T11:13:03;97745.69;;;2.47;100.00
77279;BME280;66332;50.436;15.378;2023-11-19T11:17:44;97754.53;;;2.54;100.00
77279;BME280;66332;50.436;15.378;2023-11-19T11:22:28;97745.63;;;2.66;100.00
77279;BME280;66332;50.436;15.378;2023-11-19T11:27:34;97728.34;;;2.47;100.00
77279;BME280;66332;50.436;15.378;2023-11-19T11:47:08;97722.44;;;2.55;100.00
77279;BME280;66332;50.436;15.378;2023-11-19T11:51:57;97712.97;;;2.64;100.00
77279;BME280;66332;50.436;15.378;2023-11-19T11:56:38;97725.06;;;2.83;100.00
77279;BME280;66332;50.436;15.378;2023-11-19T12:01:19;97725.47;;;2.88;100.00
77279;BME280;66332;50.436;15.378;2023-11-19T12:06:01;97710.06;;;2.76;100.00
77279;BME280;66332;50.436;15.378;2023-11-19T12:10:49;97699.31;;;2.71;100.00
77279;BME280;66332;50.436;15.378;2023-11-19T12:15:30;97696.03;;;2.69;100.00
77279;BME280;66332;50.436;15.378;2023-11-19T12:20:11;97689.97;;;2.79;100.00
77279;BME280;66332;50.436;15.378;2023-11-19T12:24:54;97686.16;;;2.73;100.00
77279;BME280;66332;50.436;15.378;2023-11-19T12:29:44;97688.19;;;2.79;100.00
77279;BME280;66332;50.436;15.378;2023-11-19T12:34:25;97689.69;;;2.82;100.00
77279;BME280;66332;50.436;15.378;2023-11-19T12:39:07;97677.53;;;2.82;100.00
77279;BME280;66332;50.436;15.378;2023-11-19T12:43:49;97687.16;;;2.99;100.00
77279;BME280;66332;50.436;15.378;2023-11-19T12:48:29;97694.34;;;3.06;100.00
77279;BME280;66332;50.436;15.378;2023-11-19T12:53:10;97681.50;;;3.04;100.00
77279;BME280;66332;50.436;15.378;2023-11-19T12:57:51;97680.91;;;2.92;100.00
77279;BME280;66332;50.436;15.378;2023-11-19T13:02:52;97675.13;;;2.98;100.00
77279;BME280;66332;50.436;15.378;2023-11-19T13:07:33;97679.47;;;2.98;100.00
77279;BME280;66332;50.436;15.378;2023-11-19T13:12:15;97653.22;;;2.83;100.00
77279;BME280;66332;50.436;15.378;2023-11-19T13:16:56;97640.38;;;2.82;100.00
77279;BME280;66332;50.436;15.378;2023-11-19T13:21:37;97636.78;;;2.92;100.00
77279;BME280;66332;50.436;15.378;2023-11-19T13:26:18;97614.22;;;2.93;100.00
77279;BME280;66332;50.436;15.378;2023-11-19T13:30:59;97612.16;;;3.14;100.00
77279;BME280;66332;50.436;15.378;2023-11-19T13:35:40;97600.13;;;2.95;100.00
77279;BME280;66332;50.436;15.378;2023-11-19T13:40:21;97597.13;;;2.90;100.00
77279;BME280;66332;50.436;15.378;2023-11-19T13:45:03;97601.91;;;3.13;100.00
77279;BME280;66332;50.436;15.378;2023-11-19T13:49:47;97614.28;;;3.19;100.00
77279;BME280;66332;50.436;15.378;2023-11-19T13:54:27;97619.44;;;3.11;100.00
77279;BME280;66332;50.436;15.378;2023-11-19T13:59:08;97618.06;;;3.07;100.00
77279;BME280;66332;50.436;15.378;2023-11-19T14:03:49;97629.38;;;3.33;100.00
77279;BME280;66332;50.436;15.378;2023-11-19T14:08:30;97634.88;;;3.30;100.00
77279;BME280;66332;50.436;15.378;2023-11-19T14:13:11;97624.91;;;3.61;100.00
77279;BME280;66332;50.436;15.378;2023-11-19T14:17:52;97627.16;;;3.38;100.00
77279;BME280;66332;50.436;15.378;2023-11-19T14:22:33;97622.59;;;3.22;100.00
77279;BME280;66332;50.436;15.378;2023-11-19T14:27:13;97619.44;;;3.29;100.00
77279;BME280;66332;50.436;15.378;2023-11-19T14:31:54;97611.63;;;3.11;100.00
77279;BME280;66332;50.436;15.378;2023-11-19T14:36:35;97613.41;;;3.28;100.00
77279;BME280;66332;50.436;15.378;2023-11-19T14:41:16;97619.19;;;3.22;100.00
77279;BME280;66332;50.436;15.378;2023-11-19T14:45:57;97615.88;;;3.30;100.00
77279;BME280;66332;50.436;15.378;2023-11-19T14:50:37;97618.38;;;3.21;100.00
77279;BME280;66332;50.436;15.378;2023-11-19T14:55:18;97628.78;;;3.21;100.00
77279;BME280;66332;50.436;15.378;2023-11-19T14:59:59;97634.19;;;3.28;100.00
77279;BME280;66332;50.436;15.378;2023-11-19T15:04:41;97631.22;;;3.23;100.00
77279;BME280;66332;50.436;15.378;2023-11-19T15:09:24;97629.88;;;3.37;100.00
77279;BME280;66332;50.436;15.378;2023-11-19T15:14:05;97634.06;;;3.48;100.00
77279;BME280;66332;50.436;15.378;2023-11-19T15:18:46;97627.06;;;3.48;100.00
77279;BME280;66332;50.436;15.378;2023-11-19T15:23:27;97621.88;;;3.30;100.00
77279;BME280;66332;50.436;15.378;2023-11-19T15:28:09;97630.88;;;3.36;100.00
77279;BME280;66332;50.436;15.378;2023-11-19T15:32:50;97616.16;;;3.27;100.00
77279;BME280;66332;50.436;15.378;2023-11-19T15:37:32;97628.03;;;3.29;100.00
77279;BME280;66332;50.436;15.378;2023-11-19T15:42:12;97631.00;;;3.34;100.00
77279;BME280;66332;50.436;15.378;2023-11-19T15:46:53;97640.75;;;3.32;100.00
77279;BME280;66332;50.436;15.378;2023-11-19T15:51:34;97627.97;;;3.21;100.00
77279;BME280;66332;50.436;15.378;2023-11-19T15:56:15;97624.03;;;3.17;100.00
77279;BME280;66332;50.436;15.378;2023-11-19T16:00:56;97626.09;;;3.13;100.00
77279;BME280;66332;50.436;15.378;2023-11-19T16:05:37;97640.56;;;3.16;100.00
77279;BME280;66332;50.436;15.378;2023-11-19T16:10:18;97632.47;;;3.19;100.00
77279;BME280;66332;50.436;15.378;2023-11-19T16:15:00;97641.38;;;3.16;100.00
77279;BME280;66332;50.436;15.378;2023-11-19T16:19:41;97648.88;;;3.19;100.00
77279;BME280;66332;50.436;15.378;2023-11-19T16:24:22;97637.44;;;3.12;100.00
77279;BME280;66332;50.436;15.378;2023-11-19T16:29:03;97646.53;;;3.26;100.00
77279;BME280;66332;50.436;15.378;2023-11-19T16:33:44;97652.81;;;3.06;100.00
77279;BME280;66332;50.436;15.378;2023-11-19T16:38:25;97650.03;;;3.07;100.00
77279;BME280;66332;50.436;15.378;2023-11-19T16:43:09;97639.53;;;3.09;100.00
77279;BME280;66332;50.436;15.378;2023-11-19T16:47:50;97637.88;;;3.26;100.00
77279;BME280;66332;50.436;15.378;2023-11-19T16:52:31;97637.53;;;3.38;100.00
77279;BME280;66332;50.436;15.378;2023-11-19T16:57:15;97632.34;;;3.38;100.00
77279;BME280;66332;50.436;15.378;2023-11-19T17:01:57;97626.94;;;3.32;100.00
77279;BME280;66332;50.436;15.378;2023-11-19T17:06:38;97628.41;;;3.34;100.00
77279;BME280;66332;50.436;15.378;2023-11-19T17:11:19;97635.91;;;3.37;100.00
77279;BME280;66332;50.436;15.378;2023-11-19T17:16:00;97635.00;;;3.47;100.00
77279;BME280;66332;50.436;15.378;2023-11-19T17:20:41;97626.91;;;3.50;100.00
77279;BME280;66332;50.436;15.378;2023-11-19T17:25:22;97644.81;;;3.35;100.00
77279;BME280;66332;50.436;15.378;2023-11-19T17:30:04;97642.06;;;3.54;100.00
77279;BME280;66332;50.436;15.378;2023-11-19T17:34:45;97638.19;;;3.40;100.00
77279;BME280;66332;50.436;15.378;2023-11-19T17:39:26;97643.19;;;3.34;100.00
77279;BME280;66332;50.436;15.378;2023-11-19T17:44:07;97649.19;;;3.52;100.00
77279;BME280;66332;50.436;15.378;2023-11-19T17:48:48;97654.03;;;3.47;100.00
77279;BME280;66332;50.436;15.378;2023-11-19T17:53:30;97646.84;;;3.41;100.00
77279;BME280;66332;50.436;15.378;2023-11-19T17:58:12;97650.53;;;3.38;100.00
77279;BME280;66332;50.436;15.378;2023-11-19T18:02:53;97639.53;;;3.27;100.00
77279;BME280;66332;50.436;15.378;2023-11-19T18:07:34;97651.84;;;3.25;100.00
77279;BME280;66332;50.436;15.378;2023-11-19T18:12:15;97662.03;;;3.36;100.00
77279;BME280;66332;50.436;15.378;2023-11-19T18:16:55;97654.75;;;3.39;100.00
77279;BME280;66332;50.436;15.378;2023-11-19T18:21:36;97656.47;;;3.49;100.00
77279;BME280;66332;50.436;15.378;2023-11-19T18:26:17;97664.19;;;3.40;100.00
77279;BME280;66332;50.436;15.378;2023-11-19T18:30:58;97656.97;;;3.52;100.00
77279;BME280;66332;50.436;15.378;2023-11-19T18:35:40;97655.34;;;3.51;100.00
77279;BME280;66332;50.436;15.378;2023-11-19T18:40:21;97652.91;;;3.50;100.00
77279;BME280;66332;50.436;15.378;2023-11-19T18:45:04;97644.97;;;3.51;100.00
77279;BME280;66332;50.436;15.378;2023-11-19T18:49:45;97651.78;;;3.52;100.00
77279;BME280;66332;50.436;15.378;2023-11-19T18:54:26;97646.97;;;3.57;100.00
77279;BME280;66332;50.436;15.378;2023-11-19T18:59:07;97654.16;;;3.63;100.00
77279;BME280;66332;50.436;15.378;2023-11-19T19:03:52;97654.16;;;3.63;100.00
77279;BME280;66332;50.436;15.378;2023-11-19T19:08:33;97651.28;;;3.49;100.00
77279;BME280;66332;50.436;15.378;2023-11-19T19:13:14;97647.56;;;3.51;100.00
77279;BME280;66332;50.436;15.378;2023-11-19T19:17:55;97656.09;;;3.43;100.00
77279;BME280;66332;50.436;15.378;2023-11-19T19:22:37;97660.78;;;3.58;100.00
77279;BME280;66332;50.436;15.378;2023-11-19T19:27:19;97657.16;;;3.51;100.00
77279;BME280;66332;50.436;15.378;2023-11-19T19:32:00;97664.66;;;3.54;100.00
77279;BME280;66332;50.436;15.378;2023-11-19T19:36:41;97660.84;;;3.48;100.00
77279;BME280;66332;50.436;15.378;2023-11-19T19:41:22;97649.88;;;3.54;100.00
77279;BME280;66332;50.436;15.378;2023-11-19T19:46:04;97647.13;;;3.38;100.00
77279;BME280;66332;50.436;15.378;2023-11-19T19:50:45;97649.06;;;3.36;100.00
77279;BME280;66332;50.436;15.378;2023-11-19T19:55:26;97656.84;;;3.54;100.00
77279;BME280;66332;50.436;15.378;2023-11-19T20:00:08;97663.06;;;3.61;100.00
77279;BME280;66332;50.436;15.378;2023-11-19T20:04:50;97673.25;;;3.54;100.00
77279;BME280;66332;50.436;15.378;2023-11-19T20:09:31;97666.78;;;3.58;100.00
77279;BME280;66332;50.436;15.378;2023-11-19T20:14:14;97672.88;;;3.49;100.00
77279;BME280;66332;50.436;15.378;2023-11-19T20:18:55;97671.63;;;3.53;100.00
77279;BME280;66332;50.436;15.378;2023-11-19T20:23:36;97668.94;;;3.63;100.00
77279;BME280;66332;50.436;15.378;2023-11-19T20:28:17;97674.59;;;3.58;100.00
77279;BME280;66332;50.436;15.378;2023-11-19T20:32:58;97669.09;;;3.61;100.00
77279;BME280;66332;50.436;15.378;2023-11-19T20:37:40;97679.06;;;3.48;100.00
77279;BME280;66332;50.436;15.378;2023-11-19T20:42:22;97678.25;;;3.65;100.00
77279;BME280;66332;50.436;15.378;2023-11-19T20:47:03;97684.97;;;3.58;100.00
77279;BME280;66332;50.436;15.378;2023-11-19T20:51:45;97693.25;;;3.72;100.00
77279;BME280;66332;50.436;15.378;2023-11-19T20:56:26;97677.94;;;3.68;100.00
77279;BME280;66332;50.436;15.378;2023-11-19T21:01:07;97684.91;;;3.68;100.00
77279;BME280;66332;50.436;15.378;2023-11-19T21:05:47;97677.34;;;3.57;100.00
77279;BME280;66332;50.436;15.378;2023-11-19T21:10:34;97665.59;;;3.53;100.00
77279;BME280;66332;50.436;15.378;2023-11-19T21:15:15;97669.34;;;3.50;100.00
77279;BME280;66332;50.436;15.378;2023-11-19T21:19:57;97673.84;;;3.48;100.00
77279;BME280;66332;50.436;15.378;2023-11-19T21:24:39;97675.25;;;3.60;100.00
77279;BME280;66332;50.436;15.378;2023-11-19T21:29:20;97667.59;;;3.59;100.00
77279;BME280;66332;50.436;15.378;2023-11-19T21:34:01;97660.78;;;3.58;100.00
77279;BME280;66332;50.436;15.378;2023-11-19T21:38:42;97669.97;;;3.52;100.00
77279;BME280;66332;50.436;15.378;2023-11-19T21:43:22;97667.09;;;3.55;100.00
77279;BME280;66332;50.436;15.378;2023-11-19T21:48:03;97672.56;;;3.52;100.00
77279;BME280;66332;50.436;15.378;2023-11-19T21:52:44;97656.38;;;3.58;100.00
77279;BME280;66332;50.436;15.378;2023-11-19T21:57:25;97661.44;;;3.60;100.00
77279;BME280;66332;50.436;15.378;2023-11-19T22:02:06;97657.38;;;3.57;100.00
77279;BME280;66332;50.436;15.378;2023-11-19T22:06:47;97666.78;;;3.76;100.00
77279;BME280;66332;50.436;15.378;2023-11-19T22:11:28;97665.88;;;3.67;100.00
77279;BME280;66332;50.436;15.378;2023-11-19T22:16:09;97660.78;;;3.58;100.00
77279;BME280;66332;50.436;15.378;2023-11-19T22:20:49;97647.94;;;3.56;100.00
77279;BME280;66332;50.436;15.378;2023-11-19T22:25:30;97652.53;;;3.62;100.00
77279;BME280;66332;50.436;15.378;2023-11-19T22:30:11;97661.38;;;3.70;100.00
77279;BME280;66332;50.436;15.378;2023-11-19T22:34:53;97642.16;;;3.44;100.00
77279;BME280;66332;50.436;15.378;2023-11-19T22:39:34;97643.84;;;3.54;100.00
77279;BME280;66332;50.436;15.378;2023-11-19T22:44:15;97658.19;;;3.58;100.00
77279;BME280;66332;50.436;15.378;2023-11-19T22:48:55;97659.38;;;3.63;100.00
77279;BME280;66332;50.436;15.378;2023-11-19T22:53:36;97648.88;;;3.55;100.00
77279;BME280;66332;50.436;15.378;2023-11-19T22:58:17;97660.34;;;3.62;100.00
77279;BME280;66332;50.436;15.378;2023-11-19T23:02:59;97651.69;;;3.62;100.00
77279;BME280;66332;50.436;15.378;2023-11-19T23:07:44;97655.66;;;3.66;100.00
77279;BME280;66332;50.436;15.378;2023-11-19T23:12:25;97655.78;;;3.64;100.00
77279;BME280;66332;50.436;15.378;2023-11-19T23:17:06;97642.28;;;3.61;100.00
77279;BME280;66332;50.436;15.378;2023-11-19T23:21:47;97637.47;;;3.66;100.00
77279;BME280;66332;50.436;15.378;2023-11-19T23:26:28;97639.28;;;3.74;100.00
77279;BME280;66332;50.436;15.378;2023-11-19T23:31:09;97641.88;;;3.74;100.00
77279;BME280;66332;50.436;15.378;2023-11-19T23:35:50;97635.75;;;3.75;100.00
77279;BME280;66332;50.436;15.378;2023-11-19T23:40:31;97640.19;;;3.64;100.00
77279;BME280;66332;50.436;15.378;2023-11-19T23:45:12;97646.19;;;3.83;100.00
77279;BME280;66332;50.436;15.378;2023-11-19T23:49:53;97643.53;;;3.75;100.00
77279;BME280;66332;50.436;15.378;2023-11-19T23:54:33;97637.06;;;3.79;100.00
77279;BME280;66332;50.436;15.378;2023-11-19T23:59:15;97636.25;;;3.78;100.00
